Time,TemperatureF,DewpointF,PressureIn,WindDirection,WindDirectionDegrees,WindSpeedMPH,WindSpeedGustMPH,Humidity,HourlyPrecipIn,Conditions,Clouds,dailyrainin,SoftwareType,DateUTC
2013-10-28 00:00:00,34.1,29.8,30.17,SW,233,0.0,0.0,84,0.00,,,0.00,Wunderground v.1.15,2013-10-28 04:00:00,
2013-10-28 00:04:00,33.9,29.9,30.17,SW,233,0.0,1.0,85,0.00,,,0.00,Wunderground v.1.15,2013-10-28 04:04:00,
2013-10-28 00:09:00,33.9,29.9,30.18,SW,233,0.0,0.0,85,0.00,,,0.00,Wunderground v.1.15,2013-10-28 04:09:00,
2013-10-28 00:14:00,33.8,29.8,30.18,SW,233,0.0,0.0,85,0.00,,,0.00,Wunderground v.1.15,2013-10-28 04:14:00,
2013-10-28 00:20:00,33.6,29.6,30.18,SW,233,0.0,0.0,85,0.00,,,0.00,Wunderground v.1.15,2013-10-28 04:20:00,
2013-10-28 00:30:00,33.3,29.6,30.18,SW,233,0.0,0.0,86,0.00,,,0.00,Wunderground v.1.15,2013-10-28 04:30:00,
2013-10-28 00:40:00,33.5,30.0,30.18,SW,233,0.0,0.0,87,0.00,,,0.00,Wunderground v.1.15,2013-10-28 04:40:00,
2013-10-28 00:45:00,33.7,30.2,30.18,SW,233,0.0,0.0,87,0.00,,,0.00,Wunderground v.1.15,2013-10-28 04:45:00,
2013-10-28 00:50:00,33.8,30.3,30.17,SW,233,0.0,0.0,87,0.00,,,0.00,Wunderground v.1.15,2013-10-28 04:50:00,
2013-10-28 00:55:00,33.5,29.8,30.18,SW,233,0.0,0.0,86,0.00,,,0.00,Wunderground v.1.15,2013-10-28 04:55:00,
2013-10-28 01:00:00,33.3,29.6,30.18,SW,233,0.0,0.0,86,0.00,,,0.00,Wunderground v.1.15,2013-10-28 05:00:00,
2013-10-28 01:04:00,33.2,29.5,30.18,SW,233,0.0,0.0,86,0.00,,,0.00,Wunderground v.1.15,2013-10-28 05:04:00,
2013-10-28 01:09:00,33.2,29.8,30.18,SW,233,0.0,0.0,87,0.00,,,0.00,Wunderground v.1.15,2013-10-28 05:09:00,
2013-10-28 01:14:00,33.2,30.0,30.18,SW,233,0.0,0.0,88,0.00,,,0.00,Wunderground v.1.15,2013-10-28 05:14:00,
2013-10-28 01:19:00,33.2,29.8,30.18,SW,233,0.0,0.0,87,0.00,,,0.00,Wunderground v.1.15,2013-10-28 05:19:00,
2013-10-28 01:24:00,33.1,29.7,30.18,SW,233,0.0,0.0,87,0.00,,,0.00,Wunderground v.1.15,2013-10-28 05:24:00,
2013-10-28 01:34:00,32.9,29.5,30.18,SW,233,0.0,0.0,87,0.00,,,0.00,Wunderground v.1.15,2013-10-28 05:34:00,
2013-10-28 01:44:00,32.6,29.4,30.17,SW,233,0.0,0.0,88,0.00,,,0.00,Wunderground v.1.15,2013-10-28 05:44:00,
2013-10-28 01:49:00,32.5,29.3,30.17,SW,233,0.0,0.0,88,0.00,,,0.00,Wunderground v.1.15,2013-10-28 05:49:00,
2013-10-28 01:55:00,32.5,29.3,30.17,SW,233,0.0,0.0,88,0.00,,,0.00,Wunderground v.1.15,2013-10-28 05:55:00,
2013-10-28 02:00:00,32.7,29.8,30.17,SW,233,0.0,0.0,89,0.00,,,0.00,Wunderground v.1.15,2013-10-28 06:00:00,
2013-10-28 02:05:00,32.7,29.8,30.17,SW,233,0.0,0.0,89,0.00,,,0.00,Wunderground v.1.15,2013-10-28 06:05:00,
2013-10-28 02:15:00,32.8,29.9,30.18,SW,233,1.0,3.0,89,0.00,,,0.00,Wunderground v.1.15,2013-10-28 06:15:00,
2013-10-28 02:24:00,32.8,29.6,30.18,SW,233,1.0,2.0,88,0.00,,,0.00,Wunderground v.1.15,2013-10-28 06:24:00,
2013-10-28 02:29:00,32.3,29.1,30.18,SW,233,0.0,0.0,88,0.00,,,0.00,Wunderground v.1.15,2013-10-28 06:29:00,
2013-10-28 02:34:00,32.1,28.9,30.18,SW,233,0.0,3.0,88,0.00,,,0.00,Wunderground v.1.15,2013-10-28 06:34:00,
2013-10-28 02:39:00,32.3,29.4,30.18,SW,233,2.0,3.0,89,0.00,,,0.00,Wunderground v.1.15,2013-10-28 06:39:00,
2013-10-28 02:45:00,32.1,29.2,30.18,SW,233,3.0,3.0,89,0.00,,,0.00,Wunderground v.1.15,2013-10-28 06:45:00,
2013-10-28 02:55:00,31.3,28.2,30.18,SW,233,3.0,3.0,88,0.00,,,0.00,Wunderground v.1.15,2013-10-28 06:55:00,
2013-10-28 03:00:00,30.9,28.0,30.18,SW,233,2.0,2.0,89,0.00,,,0.00,Wunderground v.1.15,2013-10-28 07:00:00,
2013-10-28 03:05:00,30.6,27.7,30.18,SW,233,2.0,3.0,89,0.00,,,0.00,Wunderground v.1.15,2013-10-28 07:05:00,
2013-10-28 03:10:00,30.5,27.6,30.18,SW,233,3.0,3.0,89,0.00,,,0.00,Wunderground v.1.15,2013-10-28 07:10:00,
2013-10-28 03:19:00,30.5,27.6,30.18,SW,233,1.0,2.0,89,0.00,,,0.00,Wunderground v.1.15,2013-10-28 07:19:00,
2013-10-28 03:25:00,30.6,28.0,30.18,SW,233,2.0,2.0,90,0.00,,,0.00,Wunderground v.1.15,2013-10-28 07:25:00,
2013-10-28 03:34:00,31.5,28.9,30.18,SW,233,2.0,2.0,90,0.00,,,0.00,Wunderground v.1.15,2013-10-28 07:34:00,
2013-10-28 03:39:00,31.3,28.7,30.18,SW,233,1.0,1.0,90,0.00,,,0.00,Wunderground v.1.15,2013-10-28 07:39:00,
2013-10-28 03:44:00,31.0,28.1,30.18,SW,233,1.0,3.0,89,0.00,,,0.00,Wunderground v.1.15,2013-10-28 07:44:00,
2013-10-28 03:49:00,30.9,28.3,30.18,SW,233,1.0,1.0,90,0.00,,,0.00,Wunderground v.1.15,2013-10-28 07:49:00,
2013-10-28 03:59:00,30.8,28.2,30.19,SW,233,2.0,2.0,90,0.00,,,0.00,Wunderground v.1.15,2013-10-28 07:59:00,
2013-10-28 04:09:00,30.8,28.2,30.19,SW,233,2.0,2.0,90,0.00,,,0.00,Wunderground v.1.15,2013-10-28 08:09:00,
2013-10-28 04:14:00,30.9,28.3,30.19,SW,233,2.0,2.0,90,0.00,,,0.00,Wunderground v.1.15,2013-10-28 08:14:00,
2013-10-28 04:20:00,31.0,28.4,30.19,SW,233,2.0,2.0,90,0.00,,,0.00,Wunderground v.1.15,2013-10-28 08:20:00,
2013-10-28 04:25:00,31.2,28.6,30.19,SW,233,1.0,3.0,90,0.00,,,0.00,Wunderground v.1.15,2013-10-28 08:25:00,
2013-10-28 04:35:00,31.3,28.7,30.19,SW,233,0.0,1.0,90,0.00,,,0.00,Wunderground v.1.15,2013-10-28 08:35:00,
2013-10-28 04:40:00,31.3,28.7,30.19,SW,233,0.0,0.0,90,0.00,,,0.00,Wunderground v.1.15,2013-10-28 08:40:00,
2013-10-28 04:45:00,31.2,28.6,30.20,SW,233,0.0,0.0,90,0.00,,,0.00,Wunderground v.1.15,2013-10-28 08:45:00,
2013-10-28 04:50:00,31.3,28.7,30.20,SW,233,0.0,0.0,90,0.00,,,0.00,Wunderground v.1.15,2013-10-28 08:50:00,
2013-10-28 04:55:00,31.8,29.5,30.20,SW,233,1.0,1.0,91,0.00,,,0.00,Wunderground v.1.15,2013-10-28 08:55:00,
2013-10-28 05:05:00,32.0,29.4,30.20,SW,233,0.0,1.0,90,0.00,,,0.00,Wunderground v.1.15,2013-10-28 09:05:00,
2013-10-28 05:10:00,32.1,29.5,30.20,SW,233,0.0,0.0,90,0.00,,,0.00,Wunderground v.1.15,2013-10-28 09:10:00,
2013-10-28 05:19:00,32.4,29.8,30.20,SW,233,0.0,0.0,90,0.00,,,0.00,Wunderground v.1.15,2013-10-28 09:19:00,
2013-10-28 05:24:00,32.4,29.8,30.20,SW,233,0.0,0.0,90,0.00,,,0.00,Wunderground v.1.15,2013-10-28 09:24:00,
2013-10-28 05:30:00,32.5,29.9,30.20,SW,233,0.0,0.0,90,0.00,,,0.00,Wunderground v.1.15,2013-10-28 09:30:00,
2013-10-28 05:40:00,32.5,29.9,30.21,SW,233,1.0,4.0,90,0.00,,,0.00,Wunderground v.1.15,2013-10-28 09:40:00,
2013-10-28 05:45:00,32.8,30.2,30.21,SW,233,2.0,4.0,90,0.00,,,0.00,Wunderground v.1.15,2013-10-28 09:45:00,
2013-10-28 05:50:00,32.6,30.0,30.21,SW,233,2.0,2.0,90,0.00,,,0.00,Wunderground v.1.15,2013-10-28 09:50:00,
2013-10-28 05:55:00,32.7,30.1,30.21,SW,233,1.0,4.0,90,0.00,,,0.00,Wunderground v.1.15,2013-10-28 09:55:00,
2013-10-28 06:00:00,32.7,30.1,30.22,SW,233,3.0,4.0,90,0.00,,,0.00,Wunderground v.1.15,2013-10-28 10:00:00,
2013-10-28 06:10:00,31.9,29.3,30.22,SW,233,3.0,3.0,90,0.00,,,0.00,Wunderground v.1.15,2013-10-28 10:10:00,
2013-10-28 06:15:00,31.6,29.0,30.22,SW,233,2.0,3.0,90,0.00,,,0.00,Wunderground v.1.15,2013-10-28 10:15:00,
2013-10-28 06:20:00,31.7,29.1,30.22,SW,233,1.0,1.0,90,0.00,,,0.00,Wunderground v.1.15,2013-10-28 10:20:00,
2013-10-28 06:25:00,32.1,29.5,30.22,SW,233,2.0,2.0,90,0.00,,,0.00,Wunderground v.1.15,2013-10-28 10:25:00,
2013-10-28 06:30:00,32.1,29.5,30.22,SW,233,2.0,2.0,90,0.00,,,0.00,Wunderground v.1.15,2013-10-28 10:30:00,
2013-10-28 06:35:00,32.0,29.4,30.22,SW,233,1.0,2.0,90,0.00,,,0.00,Wunderground v.1.15,2013-10-28 10:35:00,
2013-10-28 06:45:00,32.0,29.4,30.23,SW,233,1.0,4.0,90,0.00,,,0.00,Wunderground v.1.15,2013-10-28 10:45:00,
2013-10-28 06:50:00,32.4,29.8,30.23,SW,233,2.0,4.0,90,0.00,,,0.00,Wunderground v.1.15,2013-10-28 10:50:00,
2013-10-28 06:59:00,33.4,30.8,30.23,SW,233,3.0,3.0,90,0.00,,,0.00,Wunderground v.1.15,2013-10-28 10:59:00,
2013-10-28 07:04:00,33.9,31.6,30.23,SW,233,2.0,3.0,91,0.00,,,0.00,Wunderground v.1.15,2013-10-28 11:04:00,
2013-10-28 07:10:00,33.4,30.8,30.23,SW,233,2.0,4.0,90,0.00,,,0.00,Wunderground v.1.15,2013-10-28 11:10:00,
2013-10-28 07:19:00,32.8,30.2,30.24,SW,233,3.0,3.0,90,0.00,,,0.00,Wunderground v.1.15,2013-10-28 11:19:00,
2013-10-28 07:25:00,32.8,30.2,30.24,SW,233,3.0,3.0,90,0.00,,,0.00,Wunderground v.1.15,2013-10-28 11:25:00,
2013-10-28 07:30:00,32.3,29.7,30.24,SW,233,3.0,4.0,90,0.00,,,0.00,Wunderground v.1.15,2013-10-28 11:30:00,
2013-10-28 07:35:00,31.8,29.2,30.24,SW,233,4.0,4.0,90,0.00,,,0.00,Wunderground v.1.15,2013-10-28 11:35:00,
2013-10-28 07:40:00,32.3,29.7,30.24,SW,233,4.0,4.0,90,0.00,,,0.00,Wunderground v.1.15,2013-10-28 11:40:00,
2013-10-28 07:49:00,32.5,29.9,30.24,SW,233,3.0,6.0,90,0.00,,,0.00,Wunderground v.1.15,2013-10-28 11:49:00,
2013-10-28 07:54:00,32.4,29.8,30.25,SW,233,2.0,6.0,90,0.00,,,0.00,Wunderground v.1.15,2013-10-28 11:54:00,
2013-10-28 08:00:00,32.5,29.9,30.25,SW,233,1.0,3.0,90,0.00,,,0.00,Wunderground v.1.15,2013-10-28 12:00:00,
2013-10-28 08:05:00,32.6,30.3,30.25,SW,233,1.0,3.0,91,0.00,,,0.00,Wunderground v.1.15,2013-10-28 12:05:00,
2013-10-28 08:10:00,33.0,30.4,30.26,SW,233,1.0,1.0,90,0.00,,,0.00,Wunderground v.1.15,2013-10-28 12:10:00,
2013-10-28 08:15:00,33.2,30.9,30.26,SW,233,1.0,1.0,91,0.00,,,0.00,Wunderground v.1.15,2013-10-28 12:15:00,
2013-10-28 08:24:00,33.6,31.0,30.26,SW,233,1.0,1.0,90,0.00,,,0.00,Wunderground v.1.15,2013-10-28 12:24:00,
2013-10-28 08:30:00,33.3,30.7,30.27,SW,233,2.0,2.0,90,0.00,,,0.00,Wunderground v.1.15,2013-10-28 12:30:00,
2013-10-28 08:35:00,33.4,30.8,30.27,SW,233,1.0,2.0,90,0.00,,,0.00,Wunderground v.1.15,2013-10-28 12:35:00,
2013-10-28 08:44:00,34.4,32.0,30.27,SW,233,1.0,1.0,91,0.00,,,0.00,Wunderground v.1.15,2013-10-28 12:44:00,
2013-10-28 08:49:00,34.7,32.1,30.28,SW,233,0.0,0.0,90,0.00,,,0.00,Wunderground v.1.15,2013-10-28 12:49:00,
2013-10-28 08:55:00,35.1,32.7,30.27,SW,233,1.0,1.0,91,0.00,,,0.00,Wunderground v.1.15,2013-10-28 12:55:00,
2013-10-28 09:05:00,36.0,33.4,30.28,SW,233,2.0,3.0,90,0.00,,,0.00,Wunderground v.1.15,2013-10-28 13:05:00,
2013-10-28 09:10:00,36.3,33.6,30.28,SW,233,2.0,2.0,90,0.00,,,0.00,Wunderground v.1.15,2013-10-28 13:10:00,
2013-10-28 09:15:00,37.1,34.7,30.28,SW,233,3.0,3.0,91,0.00,,,0.00,Wunderground v.1.15,2013-10-28 13:15:00,
2013-10-28 09:20:00,38.1,35.4,30.28,SW,233,3.0,3.0,90,0.00,,,0.00,Wunderground v.1.15,2013-10-28 13:20:00,
2013-10-28 09:25:00,38.8,36.4,30.29,SW,233,3.0,3.0,91,0.00,,,0.00,Wunderground v.1.15,2013-10-28 13:25:00,
2013-10-28 09:30:00,39.6,36.9,30.29,SW,233,2.0,4.0,90,0.00,,,0.00,Wunderground v.1.15,2013-10-28 13:30:00,
2013-10-28 09:39:00,41.7,38.7,30.29,SSW,203,5.0,5.0,89,0.00,,,0.00,Wunderground v.1.15,2013-10-28 13:39:00,
2013-10-28 09:45:00,42.4,38.5,30.29,SSW,203,5.0,5.0,86,0.00,,,0.00,Wunderground v.1.15,2013-10-28 13:45:00,
2013-10-28 09:50:00,42.9,38.7,30.30,SSW,203,5.0,6.0,85,0.00,,,0.00,Wunderground v.1.15,2013-10-28 13:50:00,
2013-10-28 09:55:00,43.3,39.1,30.30,SSW,203,5.0,6.0,85,0.00,,,0.00,Wunderground v.1.15,2013-10-28 13:55:00,
2013-10-28 10:04:00,43.3,38.5,30.30,SSW,203,7.0,7.0,83,0.00,,,0.00,Wunderground v.1.15,2013-10-28 14:04:00,
2013-10-28 10:09:00,43.4,38.0,30.30,SSW,203,7.0,7.0,81,0.00,,,0.00,Wunderground v.1.15,2013-10-28 14:09:00,
2013-10-28 10:14:00,43.7,38.3,30.30,SSW,192,8.0,9.0,81,0.00,,,0.00,Wunderground v.1.15,2013-10-28 14:14:00,
2013-10-28 10:20:00,44.3,38.5,30.30,SSW,194,8.0,8.0,80,0.00,,,0.00,Wunderground v.1.15,2013-10-28 14:20:00,
2013-10-28 10:25:00,44.5,38.4,30.30,SSW,194,8.0,8.0,79,0.00,,,0.00,Wunderground v.1.15,2013-10-28 14:25:00,
2013-10-28 10:30:00,44.6,38.5,30.30,SSW,194,7.0,7.0,79,0.00,,,0.00,Wunderground v.1.15,2013-10-28 14:30:00,
2013-10-28 10:40:00,45.0,38.9,30.30,SSW,213,6.0,7.0,79,0.00,,,0.00,Wunderground v.1.15,2013-10-28 14:40:00,
2013-10-28 10:45:00,45.1,39.0,30.30,SSW,213,7.0,8.0,79,0.00,,,0.00,Wunderground v.1.15,2013-10-28 14:45:00,
2013-10-28 10:54:00,45.3,38.8,30.30,SSW,213,7.0,7.0,78,0.00,,,0.00,Wunderground v.1.15,2013-10-28 14:54:00,
2013-10-28 11:00:00,45.9,39.8,30.30,SSW,213,7.0,8.0,79,0.00,,,0.00,Wunderground v.1.15,2013-10-28 15:00:00,
2013-10-28 11:05:00,46.3,39.5,30.30,SSW,213,7.0,8.0,77,0.00,,,0.00,Wunderground v.1.15,2013-10-28 15:05:00,
2013-10-28 11:14:00,46.9,40.1,30.30,SSW,213,6.0,7.0,77,0.00,,,0.00,Wunderground v.1.15,2013-10-28 15:14:00,
2013-10-28 11:20:00,47.4,40.2,30.30,SSW,213,6.0,6.0,76,0.00,,,0.00,Wunderground v.1.15,2013-10-28 15:20:00,
2013-10-28 11:25:00,47.8,40.6,30.30,SSW,213,6.0,6.0,76,0.00,,,0.00,Wunderground v.1.15,2013-10-28 15:25:00,
2013-10-28 11:34:00,48.3,40.4,30.30,SSW,213,5.0,6.0,74,0.00,,,0.00,Wunderground v.1.15,2013-10-28 15:34:00,
2013-10-28 11:39:00,48.4,40.5,30.30,SSW,213,6.0,6.0,74,0.00,,,0.00,Wunderground v.1.15,2013-10-28 15:39:00,
2013-10-28 11:45:00,48.7,40.8,30.30,SSW,213,7.0,7.0,74,0.00,,,0.00,Wunderground v.1.15,2013-10-28 15:45:00,
2013-10-28 11:50:00,48.9,40.6,30.30,SSW,213,7.0,7.0,73,0.00,,,0.00,Wunderground v.1.15,2013-10-28 15:50:00,
2013-10-28 11:55:00,48.9,40.6,30.30,SSW,213,7.0,7.0,73,0.00,,,0.00,Wunderground v.1.15,2013-10-28 15:55:00,
2013-10-28 12:00:00,49.3,41.4,30.30,SSW,213,6.0,6.0,74,0.00,,,0.00,Wunderground v.1.15,2013-10-28 16:00:00,
2013-10-28 12:05:00,50.0,41.7,30.30,SSW,213,6.0,6.0,73,0.00,,,0.00,Wunderground v.1.15,2013-10-28 16:05:00,
2013-10-28 12:15:00,51.4,40.8,30.29,SW,214,5.0,6.0,67,0.00,,,0.00,Wunderground v.1.15,2013-10-28 16:15:00,
2013-10-28 12:20:00,51.9,40.9,30.29,SW,214,3.0,3.0,66,0.00,,,0.00,Wunderground v.1.15,2013-10-28 16:20:00,
2013-10-28 12:30:00,52.8,40.5,30.29,SSW,212,5.0,5.0,63,0.00,,,0.00,Wunderground v.1.15,2013-10-28 16:30:00,
2013-10-28 12:35:00,53.0,39.9,30.28,SSW,212,5.0,5.0,61,0.00,,,0.00,Wunderground v.1.15,2013-10-28 16:35:00,
2013-10-28 12:40:00,53.2,40.5,30.28,SSW,212,3.0,3.0,62,0.00,,,0.00,Wunderground v.1.15,2013-10-28 16:40:00,
2013-10-28 12:45:00,53.8,41.1,30.28,SE,134,3.0,5.0,62,0.00,,,0.00,Wunderground v.1.15,2013-10-28 16:45:00,
2013-10-28 12:50:00,54.1,40.5,30.28,South,169,4.0,4.0,60,0.00,,,0.00,Wunderground v.1.15,2013-10-28 16:50:00,
2013-10-28 13:00:00,54.5,40.0,30.27,SE,132,4.0,4.0,58,0.00,,,0.00,Wunderground v.1.15,2013-10-28 17:00:00,
2013-10-28 13:05:00,54.9,39.9,30.27,ESE,121,4.0,8.0,57,0.00,,,0.00,Wunderground v.1.15,2013-10-28 17:05:00,
2013-10-28 13:10:00,55.2,39.3,30.27,South,186,6.0,6.0,55,0.00,,,0.00,Wunderground v.1.15,2013-10-28 17:10:00,
2013-10-28 13:15:00,55.5,40.5,30.27,SSW,211,7.0,7.0,57,0.00,,,0.00,Wunderground v.1.15,2013-10-28 17:15:00,
2013-10-28 13:24:00,55.9,39.0,30.26,SSW,194,6.0,6.0,53,0.00,,,0.00,Wunderground v.1.15,2013-10-28 17:24:00,
2013-10-28 13:30:00,56.2,39.3,30.26,West,260,5.0,5.0,53,0.00,,,0.00,Wunderground v.1.15,2013-10-28 17:30:00,
2013-10-28 13:35:00,56.4,39.0,30.26,SSE,159,5.0,7.0,52,0.00,,,0.00,Wunderground v.1.15,2013-10-28 17:35:00,
2013-10-28 13:40:00,56.7,39.7,30.26,South,179,7.0,16.0,53,0.00,,,0.00,Wunderground v.1.15,2013-10-28 17:40:00,
2013-10-28 13:49:00,57.0,40.0,30.25,SSE,164,9.0,9.0,53,0.00,,,0.00,Wunderground v.1.15,2013-10-28 17:49:00,
2013-10-28 13:54:00,57.2,40.7,30.25,South,185,9.0,15.0,54,0.00,,,0.00,Wunderground v.1.15,2013-10-28 17:54:00,
2013-10-28 14:00:00,57.1,39.6,30.25,SSW,193,12.0,12.0,52,0.00,,,0.00,Wunderground v.1.15,2013-10-28 18:00:00,
2013-10-28 14:05:00,57.4,40.4,30.25,SSW,212,10.0,12.0,53,0.00,,,0.00,Wunderground v.1.15,2013-10-28 18:05:00,
2013-10-28 14:15:00,57.8,39.8,30.25,SSW,196,10.0,13.0,51,0.00,,,0.00,Wunderground v.1.15,2013-10-28 18:15:00,
2013-10-28 14:24:00,58.4,40.3,30.24,South,185,13.0,13.0,51,0.00,,,0.00,Wunderground v.1.15,2013-10-28 18:24:00,
2013-10-28 14:30:00,58.3,40.2,30.24,South,189,12.0,12.0,51,0.00,,,0.00,Wunderground v.1.15,2013-10-28 18:30:00,
2013-10-28 14:35:00,58.6,39.5,30.24,SW,236,11.0,12.0,49,0.00,,,0.00,Wunderground v.1.15,2013-10-28 18:35:00,
2013-10-28 14:40:00,59.2,39.5,30.24,SW,214,9.0,9.0,48,0.00,,,0.00,Wunderground v.1.15,2013-10-28 18:40:00,
2013-10-28 14:49:00,59.4,41.8,30.23,South,188,8.0,15.0,52,0.00,,,0.00,Wunderground v.1.15,2013-10-28 18:49:00,
2013-10-28 14:54:00,59.2,40.0,30.23,South,175,11.0,15.0,49,0.00,,,0.00,Wunderground v.1.15,2013-10-28 18:54:00,
2013-10-28 14:59:00,59.4,40.7,30.23,SW,232,10.0,10.0,50,0.00,,,0.00,Wunderground v.1.15,2013-10-28 18:59:00,
2013-10-28 15:05:00,59.1,41.0,30.23,SW,225,8.0,10.0,51,0.00,,,0.00,Wunderground v.1.15,2013-10-28 19:05:00,
2013-10-28 15:10:00,59.1,41.5,30.23,SSE,167,8.0,8.0,52,0.00,,,0.00,Wunderground v.1.15,2013-10-28 19:10:00,
2013-10-28 15:15:00,59.3,42.2,30.23,SW,220,8.0,10.0,53,0.00,,,0.00,Wunderground v.1.15,2013-10-28 19:15:00,
2013-10-28 15:25:00,59.5,41.9,30.23,SW,224,8.0,10.0,52,0.00,,,0.00,Wunderground v.1.15,2013-10-28 19:25:00,
2013-10-28 15:34:00,59.8,41.1,30.23,SW,234,8.0,12.0,50,0.00,,,0.00,Wunderground v.1.15,2013-10-28 19:34:00,
2013-10-28 15:40:00,59.5,41.3,30.23,SSW,211,8.0,9.0,51,0.00,,,0.00,Wunderground v.1.15,2013-10-28 19:40:00,
2013-10-28 15:45:00,59.3,41.7,30.23,SSW,203,8.0,15.0,52,0.00,,,0.00,Wunderground v.1.15,2013-10-28 19:45:00,
2013-10-28 15:50:00,59.2,41.6,30.23,SSW,194,11.0,20.0,52,0.00,,,0.00,Wunderground v.1.15,2013-10-28 19:50:00,
2013-10-28 15:59:00,59.2,42.1,30.23,SSW,203,12.0,12.0,53,0.00,,,0.00,Wunderground v.1.15,2013-10-28 19:59:00,
2013-10-28 16:05:00,59.2,40.6,30.23,SW,236,13.0,13.0,50,0.00,,,0.00,Wunderground v.1.15,2013-10-28 20:05:00,
2013-10-28 16:10:00,59.3,42.2,30.24,SSW,209,10.0,10.0,53,0.00,,,0.00,Wunderground v.1.15,2013-10-28 20:10:00,
2013-10-28 16:15:00,59.1,40.5,30.23,SW,229,8.0,12.0,50,0.00,,,0.00,Wunderground v.1.15,2013-10-28 20:15:00,
2013-10-28 16:24:00,59.3,41.2,30.24,SSW,202,10.0,10.0,51,0.00,,,0.00,Wunderground v.1.15,2013-10-28 20:24:00,
2013-10-28 16:30:00,59.8,42.1,30.24,SW,216,10.0,10.0,52,0.00,,,0.00,Wunderground v.1.15,2013-10-28 20:30:00,
2013-10-28 16:35:00,60.3,41.6,30.23,SSW,213,11.0,12.0,50,0.00,,,0.00,Wunderground v.1.15,2013-10-28 20:35:00,
2013-10-28 16:40:00,60.3,41.6,30.23,SSW,211,11.0,11.0,50,0.00,,,0.00,Wunderground v.1.15,2013-10-28 20:40:00,
2013-10-28 16:45:00,60.0,43.3,30.24,SSW,201,11.0,11.0,54,0.00,,,0.00,Wunderground v.1.15,2013-10-28 20:45:00,
2013-10-28 16:55:00,59.9,43.2,30.24,SW,235,7.0,9.0,54,0.00,,,0.00,Wunderground v.1.15,2013-10-28 20:55:00,
2013-10-28 17:05:00,59.9,42.7,30.24,SW,217,3.0,6.0,53,0.00,,,0.00,Wunderground v.1.15,2013-10-28 21:05:00,
2013-10-28 17:10:00,59.3,43.1,30.24,SW,219,5.0,11.0,55,0.00,,,0.00,Wunderground v.1.15,2013-10-28 21:10:00,
2013-10-28 17:15:00,57.9,43.7,30.24,SW,219,9.0,11.0,59,0.00,,,0.00,Wunderground v.1.15,2013-10-28 21:15:00,
2013-10-28 17:24:00,57.0,43.7,30.24,SW,232,9.0,10.0,61,0.00,,,0.00,Wunderground v.1.15,2013-10-28 21:24:00,
2013-10-28 17:30:00,56.9,43.6,30.24,SW,230,9.0,9.0,61,0.00,,,0.00,Wunderground v.1.15,2013-10-28 21:30:00,
2013-10-28 17:35:00,56.8,43.9,30.24,SW,223,8.0,9.0,62,0.00,,,0.00,Wunderground v.1.15,2013-10-28 21:35:00,
2013-10-28 17:40:00,56.4,44.0,30.24,SW,218,7.0,8.0,63,0.00,,,0.00,Wunderground v.1.15,2013-10-28 21:40:00,
2013-10-28 17:50:00,55.5,43.9,30.24,SW,225,6.0,8.0,65,0.00,,,0.00,Wunderground v.1.15,2013-10-28 21:50:00,
2013-10-28 17:55:00,55.3,43.7,30.25,SW,217,7.0,8.0,65,0.00,,,0.00,Wunderground v.1.15,2013-10-28 21:55:00,
2013-10-28 18:00:00,54.6,43.5,30.25,SW,217,6.0,6.0,66,0.00,,,0.00,Wunderground v.1.15,2013-10-28 22:00:00,
2013-10-28 18:05:00,53.9,43.2,30.25,SW,223,6.0,6.0,67,0.00,,,0.00,Wunderground v.1.15,2013-10-28 22:05:00,
2013-10-28 18:14:00,53.6,42.5,30.25,SW,235,6.0,11.0,66,0.00,,,0.00,Wunderground v.1.15,2013-10-28 22:14:00,
2013-10-28 18:24:00,54.8,42.0,30.26,WSW,240,8.0,8.0,62,0.00,,,0.00,Wunderground v.1.15,2013-10-28 22:24:00,
2013-10-28 18:30:00,54.9,41.7,30.26,WSW,250,7.0,7.0,61,0.00,,,0.00,Wunderground v.1.15,2013-10-28 22:30:00,
2013-10-28 18:35:00,54.9,41.7,30.26,WSW,241,6.0,7.0,61,0.00,,,0.00,Wunderground v.1.15,2013-10-28 22:35:00,
2013-10-28 18:40:00,54.7,41.5,30.26,WSW,241,3.0,3.0,61,0.00,,,0.00,Wunderground v.1.15,2013-10-28 22:40:00,
2013-10-28 18:45:00,54.3,41.6,30.26,WSW,241,1.0,5.0,62,0.00,,,0.00,Wunderground v.1.15,2013-10-28 22:45:00,
2013-10-28 18:55:00,53.7,41.4,30.27,WSW,242,2.0,3.0,63,0.00,,,0.00,Wunderground v.1.15,2013-10-28 22:55:00,
2013-10-28 19:05:00,52.5,41.5,30.27,WSW,242,0.0,2.0,66,0.00,,,0.00,Wunderground v.1.15,2013-10-28 23:05:00,
2013-10-28 19:10:00,52.0,41.4,30.27,WSW,242,0.0,0.0,67,0.00,,,0.00,Wunderground v.1.15,2013-10-28 23:10:00,
2013-10-28 19:15:00,51.6,41.4,30.27,WSW,242,0.0,0.0,68,0.00,,,0.00,Wunderground v.1.15,2013-10-28 23:15:00,
2013-10-28 19:25:00,50.5,41.1,30.28,WSW,242,0.0,0.0,70,0.00,,,0.00,Wunderground v.1.15,2013-10-28 23:25:00,
2013-10-28 19:35:00,48.5,40.6,30.27,WSW,242,3.0,4.0,74,0.00,,,0.00,Wunderground v.1.15,2013-10-28 23:35:00,
2013-10-28 19:40:00,47.8,40.6,30.28,WSW,242,4.0,4.0,76,0.00,,,0.00,Wunderground v.1.15,2013-10-28 23:40:00,
2013-10-28 19:45:00,46.9,40.1,30.28,WSW,242,4.0,4.0,77,0.00,,,0.00,Wunderground v.1.15,2013-10-28 23:45:00,
2013-10-28 19:50:00,46.1,39.3,30.28,WSW,242,4.0,4.0,77,0.00,,,0.00,Wunderground v.1.15,2013-10-28 23:50:00,
2013-10-28 19:55:00,45.4,39.3,30.28,WSW,242,3.0,4.0,79,0.00,,,0.00,Wunderground v.1.15,2013-10-28 23:55:00,
2013-10-28 20:04:00,45.4,40.2,30.29,WSW,242,3.0,3.0,82,0.00,,,0.00,Wunderground v.1.15,2013-10-29 00:04:00,
2013-10-28 20:09:00,45.6,40.4,30.29,WSW,242,2.0,2.0,82,0.00,,,0.00,Wunderground v.1.15,2013-10-29 00:09:00,
2013-10-28 20:15:00,45.8,40.6,30.30,WSW,242,0.0,2.0,82,0.00,,,0.00,Wunderground v.1.15,2013-10-29 00:15:00,
2013-10-28 20:20:00,45.9,40.7,30.30,WSW,242,0.0,0.0,82,0.00,,,0.00,Wunderground v.1.15,2013-10-29 00:20:00,
2013-10-28 20:25:00,45.9,40.7,30.30,WSW,242,0.0,0.0,82,0.00,,,0.00,Wunderground v.1.15,2013-10-29 00:25:00,
2013-10-28 20:30:00,46.0,40.8,30.30,WSW,242,0.0,0.0,82,0.00,,,0.00,Wunderground v.1.15,2013-10-29 00:30:00,
2013-10-28 20:40:00,45.8,40.3,30.30,WSW,242,0.0,0.0,81,0.00,,,0.00,Wunderground v.1.15,2013-10-29 00:40:00,
2013-10-28 20:50:00,45.3,40.1,30.30,WSW,242,0.0,0.0,82,0.00,,,0.00,Wunderground v.1.15,2013-10-29 00:50:00,
2013-10-28 20:55:00,45.1,39.9,30.31,WSW,242,0.0,0.0,82,0.00,,,0.00,Wunderground v.1.15,2013-10-29 00:55:00,
2013-10-28 21:00:00,44.7,39.9,30.31,WSW,242,0.0,0.0,83,0.00,,,0.00,Wunderground v.1.15,2013-10-29 01:00:00,
2013-10-28 21:05:00,44.5,39.7,30.31,WSW,242,0.0,0.0,83,0.00,,,0.00,Wunderground v.1.15,2013-10-29 01:05:00,
2013-10-28 21:10:00,44.2,39.7,30.31,WSW,242,0.0,0.0,84,0.00,,,0.00,Wunderground v.1.15,2013-10-29 01:10:00,
2013-10-28 21:15:00,44.1,39.9,30.30,WSW,242,0.0,0.0,85,0.00,,,0.00,Wunderground v.1.15,2013-10-29 01:15:00,
2013-10-28 21:20:00,44.2,40.0,30.31,WSW,242,0.0,0.0,85,0.00,,,0.00,Wunderground v.1.15,2013-10-29 01:20:00,
2013-10-28 21:25:00,44.2,40.0,30.31,WSW,242,0.0,0.0,85,0.00,,,0.00,Wunderground v.1.15,2013-10-29 01:25:00,
2013-10-28 21:34:00,43.6,39.4,30.31,WSW,242,0.0,0.0,85,0.00,,,0.00,Wunderground v.1.15,2013-10-29 01:34:00,
2013-10-28 21:39:00,43.3,39.1,30.31,WSW,242,0.0,0.0,85,0.00,,,0.00,Wunderground v.1.15,2013-10-29 01:39:00,
2013-10-28 21:44:00,43.0,39.1,30.31,WSW,242,0.0,0.0,86,0.00,,,0.00,Wunderground v.1.15,2013-10-29 01:44:00,
2013-10-28 21:49:00,42.7,38.8,30.31,WSW,242,0.0,0.0,86,0.00,,,0.00,Wunderground v.1.15,2013-10-29 01:49:00,
2013-10-28 21:55:00,42.7,39.1,30.32,WSW,242,0.0,0.0,87,0.00,,,0.00,Wunderground v.1.15,2013-10-29 01:55:00,
2013-10-28 22:05:00,42.1,38.5,30.32,WSW,242,0.0,0.0,87,0.00,,,0.00,Wunderground v.1.15,2013-10-29 02:05:00,
2013-10-28 22:10:00,41.5,37.9,30.32,WSW,242,0.0,3.0,87,0.00,,,0.00,Wunderground v.1.15,2013-10-29 02:10:00,
2013-10-28 22:15:00,41.1,37.5,30.32,WSW,242,1.0,3.0,87,0.00,,,0.00,Wunderground v.1.15,2013-10-29 02:15:00,
2013-10-28 22:25:00,40.6,37.0,30.31,WSW,242,1.0,3.0,87,0.00,,,0.00,Wunderground v.1.15,2013-10-29 02:25:00,
2013-10-28 22:30:00,40.7,37.1,30.31,WSW,244,3.0,3.0,87,0.00,,,0.00,Wunderground v.1.15,2013-10-29 02:30:00,
2013-10-28 22:39:00,40.2,38.1,30.32,North,355,4.0,4.0,92,0.00,,,0.00,Wunderground v.1.15,2013-10-29 02:39:00,
2013-10-28 22:45:00,40.1,36.8,30.32,North,355,2.0,4.0,88,0.00,,,0.00,Wunderground v.1.15,2013-10-29 02:45:00,
2013-10-28 22:50:00,40.0,36.7,30.32,North,355,0.0,0.0,88,0.00,,,0.00,Wunderground v.1.15,2013-10-29 02:50:00,
2013-10-28 23:00:00,39.6,36.3,30.32,North,355,0.0,0.0,88,0.00,,,0.00,Wunderground v.1.15,2013-10-29 03:00:00,
2013-10-28 23:10:00,38.2,34.4,30.33,North,355,2.0,5.0,86,0.00,,,0.00,Wunderground v.1.15,2013-10-29 03:10:00,
2013-10-28 23:15:00,37.5,34.0,30.33,North,355,5.0,5.0,87,0.00,,,0.00,Wunderground v.1.15,2013-10-29 03:15:00,
2013-10-28 23:20:00,36.9,33.7,30.33,NW,323,5.0,5.0,88,0.00,,,0.00,Wunderground v.1.15,2013-10-29 03:20:00,
2013-10-28 23:30:00,36.6,33.7,30.34,NW,317,6.0,6.0,89,0.00,,,0.00,Wunderground v.1.15,2013-10-29 03:30:00,
2013-10-28 23:35:00,36.4,33.5,30.33,NW,317,6.0,6.0,89,0.00,,,0.00,Wunderground v.1.15,2013-10-29 03:35:00,
2013-10-28 23:40:00,37.1,34.4,30.33,NW,317,5.0,5.0,90,0.00,,,0.00,Wunderground v.1.15,2013-10-29 03:40:00,
2013-10-28 23:49:00,37.7,35.0,30.32,NW,317,1.0,1.0,90,0.00,,,0.00,Wunderground v.1.15,2013-10-29 03:49:00,
2013-10-28 23:55:00,37.5,34.8,30.32,NW,317,0.0,1.0,90,0.00,,,0.00,Wunderground v.1.15,2013-10-29 03:55:00,